Kezdőlap
METAR-TAF:

METAR-TAF

Repülőterek :

Chester, Connecticut, Amerikai Egyesült Államok

földrajzi szélesség: 41-23-02N, földrajzi hosszúság: 072-30-21W, magasság: 127 m

Jelenlegi meteorológiai megfigyelések

A jelentés 8 perccel ezelõtt készült, 07:55 UTC
Szélcsend
Hőmérséklet 15°C
Páratartalom 100%
Légköri nyomás 1022 hPa
Látótávolság: 0.4 km
Borult 100 lábon
köd

METAR: KSNC 260755Z AUTO 00000KT 1/4SM FG OVC001 15/15 A3019 RMK AO2

Idő: 04:03 (08:03 UTC)


TAF: hiányzik

Meteorológiai megfigyelések és előrejelzések több, mint 4000 repülőtéren (METAR és TAF jelentéseket).

A térképen piros és sárga pontok jelzik az elérhető meteorológiai állomásokat.

Mozgassa az egeret a pont fölött, hogy megjelenjen az állomás neve.

Azután kattintson az időjárási megfigyelések és előrejelzések megtekintéséhez.

A térkép megváltoztatása: kattintson a fekete keresztel jelölt zöld gombra ráközelítéshez, a vonallal jelölt zöld gombra távolításhoz, vagy a zöld nyilakra a szomszédos térképek eléréséhez.


METAR-TAF: